Home   Weather   Legnano   Past weeks
Flag for Italy

Past Weather in Legnano, Italy — Yesterday and Last 2 Weeks

Currently: 68 °F. Clear. (Weather station: Milan / Linate, Italy). See more current weather

Past Weather in Legnano — Graph

°F

Legnano Temperature Yesterday

Maximum temperature yesterday: 86 °F (at 3:20 pm)
Minimum temperature yesterday: 64 °F (at 5:50 am)
Average temperature yesterday: 75 °F

High & Low Weather Summary for the Past Weeks

 TemperatureHumidityPressure
High95 °F (Jun 13, 3:50 pm)100% (Jun 9, 1:50 am)30.12 "Hg (Jun 9, 1:50 am)
Low61 °F (Jun 9, 4:50 am)30% (Jun 13, 2:50 pm)29.74 "Hg (Jun 21, 5:20 pm)
Average77 °F59%29.98 "Hg
* Reported Jun 8 11:20 pm — Jun 23 11:20 pm, Legnano. Weather by CustomWeather, © 2021

Note: Actual official high and low records may vary slightly from our data, if they occured in-between our weather recording intervals... More about our weather records

Legnano Weather History for the Previous 24 Hours

Scroll right to see more
 ConditionsComfort  
Time TempWeatherWind HumidityBarometerVisibility
11:20 pm
Wed, Jun 23
68 °FClear.1 mph78%30.01 "Hg10 mi
10:50 pm68 °FClear.1 mph78%30.01 "Hg10 mi
10:20 pm70 °FPassing clouds.3 mph73%30.01 "HgN/A
9:20 pm72 °FClear.2 mph78%29.98 "Hg10 mi
8:50 pm77 °FSunny.6 mph54%29.98 "Hg10 mi
8:20 pm77 °FSunny.8 mph54%29.95 "Hg10 mi
7:50 pm77 °FPassing clouds.8 mph57%29.95 "HgN/A
7:20 pm77 °FSunny.9 mph57%29.95 "Hg10 mi
6:50 pm79 °FSunny.7 mph58%29.95 "Hg10 mi
6:20 pm77 °FPassing clouds.10 mph69%29.95 "HgN/A
5:50 pm79 °FPassing clouds.3 mph54%29.98 "HgN/A
5:20 pm75 °FScattered clouds.9 mph61%29.98 "Hg5 mi
4:50 pm82 °FThundershowers. Broken clouds.5 mph48%29.98 "HgN/A
4:20 pm82 °FPartly sunny.6 mph45%29.98 "HgN/A
3:50 pm84 °FScattered clouds.7 mph43%29.95 "HgN/A
3:20 pm86 °FPassing clouds.5 mph46%29.95 "HgN/A
2:50 pm84 °FPassing clouds.6 mph45%29.95 "HgN/A
2:20 pm84 °FPassing clouds.7 mph45%29.95 "HgN/A
1:50 pm84 °FPassing clouds.6 mph48%29.95 "HgN/A
1:20 pm82 °FPassing clouds.6 mph48%29.98 "HgN/A
12:50 pm82 °FPassing clouds.6 mph48%29.98 "HgN/A
12:20 pm81 °FSunny.6 mph54%29.98 "Hg10 mi
11:50 am81 °FPassing clouds.6 mph58%29.98 "HgN/A
11:20 am81 °FPassing clouds.6 mph54%29.98 "HgN/A
10:50 am79 °FPassing clouds.6 mph58%29.98 "HgN/A
10:20 am79 °FSunny.3 mph61%29.98 "Hg10 mi
9:50 am77 °FSunny.3 mph61%29.98 "Hg10 mi
9:20 am77 °FPassing clouds.6 mph65%29.98 "HgN/A
8:50 am75 °FPassing clouds.5 mph69%29.98 "HgN/A
8:20 am73 °FPassing clouds.3 mph74%29.98 "HgN/A
7:50 am73 °FSunny.1 mph69%29.95 "Hg10 mi
7:20 am72 °FSunny.2 mph78%29.95 "Hg10 mi
6:50 am70 °FSunny.1 mph78%29.95 "Hg10 mi
6:20 am66 °FSunny.1 mph88%29.95 "Hg10 mi
5:50 am64 °FSunny.1 mph94%29.95 "Hg10 mi
5:20 am66 °FClear.1 mph88%29.92 "Hg10 mi
4:50 am68 °FClear.2 mph83%29.92 "Hg10 mi
4:20 am66 °FClear.2 mph83%29.92 "Hg10 mi
3:50 am66 °FClear.2 mph88%29.92 "Hg10 mi
3:20 am66 °FClear.1 mph88%29.92 "Hg10 mi
2:50 am66 °FClear.2 mph83%29.92 "Hg10 mi
2:20 am68 °FClear.2 mph83%29.92 "Hg10 mi
1:50 am68 °FPassing clouds.3 mph83%29.92 "HgN/A
1:20 am70 °FClear.3 mph78%29.92 "Hg10 mi
12:50 am68 °FClear.2 mph83%29.92 "Hg10 mi
12:20 am68 °FClear.2 mph83%29.92 "Hg10 mi
Weather by CustomWeather, © 2021

See weather overview